Imbler, Oregon
Current Conditions -  °F | °C
As of 6:15 PM on Monday 20 Oct 2014 (Local Time) from KLGD Reporting Station
Clear Clear  
Wind Chill: 57°   Ceiling: Unl
Heat Index: 57°   Visibility: 10mi
Dew Point: 37°   Wind: 29mph
Humidity: 48%   Direction: 280°W
Pressure: 29.78"   Gusts: 35mph
Location:  45.46°N, 117.96°W
Report Text: KLGD 210115Z AUTO 28025G30KT 10SM CLR 14/03 A2978 RMK AO1
Loading
Personal Weather Stations






























Interactive Weather Map
Tropical Storm Tracking
New forecast layout! Learn more

10-Day Weather Forecast

Advertisements
Track Severe Weather on mobile